Providence, Rhode Island
Traffic Map
Current Weather Conditions
Providence, Rhode Island
Clear
Clear
69°
Feels Like: 69°
Wind Chill: 69° Ceiling: Unl
Heat Index: 69° Visibility: 10mi
Dew Point: 67° Wind: 3mph
Humidity: 93% Direction: 170° (S)
Pressure: 29.87in Gusts: 0mph
Raw Report DataKPVD 030551Z 17003KT 10SM CLR 21/19 A2987 RMK AO2 SLP115 T02060194 10244 20206 58007 $
Traffic Incident Summary
Active as of:
Severity:
Category:
InformationThere was an issue retrieving the traffic information for this location. Please try a different location or try again shortly.
Advertisements
Track Severe Weather on mobile